Time;durP1;ratioP1;P1;durP2;ratioP2;P2;SDS_P1;SDS_P2;PMS_P1;PMS_P2;Temp;Humidity;BMP_temperature;BMP_pressure;BME280_temperature;BME280_humidity;BME280_pressure;Samples;Min_cycle;Max_cycle;Signal;HPM_P1;HPM_P2
2021/12/22 00:00:51;;;;;;;0.38;0.30;;;;;;;;;;4214377;28;20052;-34
2021/12/22 00:02:52;;;;;;;0.47;0.30;;;;;;;;;;4214048;28;20178;-34
2021/12/22 00:04:54;;;;;;;0.50;0.40;;;;;;;;;;4195509;28;20053;-34
2021/12/22 00:06:55;;;;;;;0.38;0.30;;;;;;;;;;4213930;28;20056;-34
2021/12/22 00:08:58;;;;;;;0.88;0.52;;;;;;;;;;4195746;28;20048;-34
2021/12/22 00:10:59;;;;;;;0.70;0.30;;;;;;;;;;4214341;28;20097;-34
2021/12/22 00:13:00;;;;;;;0.30;0.30;;;;;;;;;;4213761;28;20048;-33
2021/12/22 00:15:01;;;;;;;0.45;0.40;;;;;;;;;;4213974;28;20123;-34
2021/12/22 00:17:03;;;;;;;0.65;0.43;;;;;;;;;;4213837;28;20081;-34
2021/12/22 00:19:03;;;;;;;0.38;0.32;;;;;;;;;;4213996;28;20109;-33
2021/12/22 00:21:04;;;;;;;0.47;0.45;;;;;;;;;;4213762;28;20098;-34
2021/12/22 00:23:05;;;;;;;0.20;0.20;;;;;;;;;;4195332;28;20074;-34
2021/12/22 00:25:06;;;;;;;0.45;0.30;;;;;;;;;;4213869;28;20175;-34
2021/12/22 00:27:07;;;;;;;0.40;0.30;;;;;;;;;;4213655;28;20098;-35
2021/12/22 00:29:09;;;;;;;0.90;0.30;;;;;;;;;;4195899;28;20476;-34
2021/12/22 00:31:13;;;;;;;0.35;0.30;;;;;;;;;;4213694;28;20106;-33
2021/12/22 00:33:14;;;;;;;0.30;0.30;;;;;;;;;;4195725;28;20436;-34
2021/12/22 00:35:15;;;;;;;0.60;0.50;;;;;;;;;;4213710;28;20051;-34
2021/12/22 00:37:18;;;;;;;0.80;0.40;;;;;;;;;;4195545;28;20052;-34
2021/12/22 00:39:19;;;;;;;0.47;0.30;;;;;;;;;;4213895;28;20052;-33
2021/12/22 00:41:20;;;;;;;0.40;0.30;;;;;;;;;;4195541;28;20060;-34
2021/12/22 00:43:21;;;;;;;0.40;0.40;;;;;;;;;;4213569;28;20070;-35
2021/12/22 00:45:24;;;;;;;0.95;0.43;;;;;;;;;;4213768;28;20102;-34
2021/12/22 00:47:26;;;;;;;0.75;0.30;;;;;;;;;;4178958;28;20061;-34
2021/12/22 00:49:27;;;;;;;0.77;0.40;;;;;;;;;;4213910;28;20109;-34
2021/12/22 00:51:28;;;;;;;0.60;0.40;;;;;;;;;;4213652;28;20087;-34
2021/12/22 00:53:29;;;;;;;0.40;0.40;;;;;;;;;;4213501;28;20044;-34
2021/12/22 00:55:31;;;;;;;0.30;0.30;;;;;;;;;;4213651;28;20377;-34
2021/12/22 00:57:33;;;;;;;0.38;0.35;;;;;;;;;;4213740;28;20109;-35
2021/12/22 00:59:35;;;;;;;0.35;0.35;;;;;;;;;;4213737;28;20097;-34
2021/12/22 01:01:36;;;;;;;0.40;0.30;;;;;;;;;;4213317;28;20056;-34
2021/12/22 01:03:37;;;;;;;0.80;0.57;;;;;;;;;;4213495;28;20108;-34
2021/12/22 01:05:38;;;;;;;0.20;0.20;;;;;;;;;;4213437;28;20483;-35
2021/12/22 01:07:39;;;;;;;0.75;0.50;;;;;;;;;;4212984;28;20090;-34
2021/12/22 01:09:40;;;;;;;0.30;0.30;;;;;;;;;;4213526;28;20052;-34
2021/12/22 01:11:41;;;;;;;0.47;0.38;;;;;;;;;;4213569;28;20040;-34
2021/12/22 01:13:42;;;;;;;0.60;0.40;;;;;;;;;;4213716;28;20189;-34
2021/12/22 01:15:43;;;;;;;0.38;0.38;;;;;;;;;;4197472;28;20051;-34
2021/12/22 01:17:48;;;;;;;0.40;0.30;;;;;;;;;;4216053;28;20059;-34
2021/12/22 01:21:59;;;;;;;0.73;0.50;;;;;;;;;;4198054;28;20147;-34
2021/12/22 01:24:03;;;;;;;0.70;0.40;;;;;;;;;;4216602;28;20059;-34
2021/12/22 01:26:05;;;;;;;1.15;0.40;;;;;;;;;;4216591;28;20056;-33
2021/12/22 01:28:06;;;;;;;0.60;0.60;;;;;;;;;;4216347;28;20094;-34
2021/12/22 01:30:10;;;;;;;0.77;0.40;;;;;;;;;;4216536;28;20048;-34
2021/12/22 01:32:13;;;;;;;0.38;0.28;;;;;;;;;;4216740;28;20097;-33
2021/12/22 01:34:14;;;;;;;0.55;0.32;;;;;;;;;;4216527;28;20048;-33
2021/12/22 01:36:15;;;;;;;0.30;0.25;;;;;;;;;;4198450;28;20507;-34
2021/12/22 01:38:16;;;;;;;0.32;0.32;;;;;;;;;;4215850;28;20056;-33
2021/12/22 01:40:18;;;;;;;0.52;0.40;;;;;;;;;;4216345;28;20086;-34
2021/12/22 01:42:19;;;;;;;1.48;0.30;;;;;;;;;;4214993;28;20040;-34
2021/12/22 01:44:25;;;;;;;0.45;0.35;;;;;;;;;;4216509;28;20048;-35
2021/12/22 01:49:10;;;;;;;0.30;0.30;;;;;;;;;;4216280;28;20094;-33
2021/12/22 01:49:11;;;;;;;0.47;0.30;;;;;;;;;;4198318;28;20104;-34
2021/12/22 01:51:16;;;;;;;0.57;0.40;;;;;;;;;;4216367;28;20396;-33
2021/12/22 01:53:20;;;;;;;0.55;0.43;;;;;;;;;;4197685;28;20048;-33
2021/12/22 01:55:32;;;;;;;0.68;0.40;;;;;;;;;;4216216;28;20177;-34
2021/12/22 01:57:34;;;;;;;0.38;0.30;;;;;;;;;;4216067;28;20552;-33
2021/12/22 01:59:36;;;;;;;0.68;0.38;;;;;;;;;;4216387;28;20056;-33
2021/12/22 02:01:38;;;;;;;0.88;0.52;;;;;;;;;;4215968;28;20055;-34
2021/12/22 02:03:39;;;;;;;0.32;0.28;;;;;;;;;;4216152;28;20052;-34
2021/12/22 02:05:40;;;;;;;0.30;0.25;;;;;;;;;;4216336;28;20109;-34
2021/12/22 02:07:41;;;;;;;0.40;0.40;;;;;;;;;;4215763;28;20111;-33
2021/12/22 02:11:49;;;;;;;1.55;0.50;;;;;;;;;;4215805;28;20099;-33
2021/12/22 02:13:57;;;;;;;0.40;0.40;;;;;;;;;;4215935;28;20052;-34
2021/12/22 02:16:10;;;;;;;0.55;0.40;;;;;;;;;;4215865;28;20048;-34
2021/12/22 02:18:17;;;;;;;0.70;0.55;;;;;;;;;;4215776;28;20055;-34
2021/12/22 02:20:19;;;;;;;0.40;0.30;;;;;;;;;;4215871;28;20056;-34
2021/12/22 02:22:20;;;;;;;0.40;0.40;;;;;;;;;;4215532;28;20055;-33
2021/12/22 02:24:21;;;;;;;0.63;0.40;;;;;;;;;;4215652;28;20052;-33
2021/12/22 02:26:33;;;;;;;0.30;0.30;;;;;;;;;;4215114;28;20482;-34
2021/12/22 02:28:36;;;;;;;0.52;0.40;;;;;;;;;;4197855;28;20052;-33
2021/12/22 02:30:37;;;;;;;0.73;0.40;;;;;;;;;;4215607;28;20487;-34
2021/12/22 02:35:00;;;;;;;0.40;0.40;;;;;;;;;;4215635;28;20048;-34
2021/12/22 02:37:10;;;;;;;0.28;0.25;;;;;;;;;;4214950;28;20436;-34
2021/12/22 02:39:12;;;;;;;0.57;0.40;;;;;;;;;;4197605;28;20140;-33
2021/12/22 02:41:14;;;;;;;0.32;0.32;;;;;;;;;;4215643;28;20101;-33
2021/12/22 02:43:21;;;;;;;0.68;0.40;;;;;;;;;;4215466;28;20101;-34
2021/12/22 02:45:21;;;;;;;0.50;0.30;;;;;;;;;;4215703;28;20052;-33
2021/12/22 02:47:24;;;;;;;0.40;0.40;;;;;;;;;;4215357;28;20462;-34
2021/12/22 02:49:25;;;;;;;0.20;0.20;;;;;;;;;;4215406;28;20052;-33
2021/12/22 02:51:30;;;;;;;0.30;0.30;;;;;;;;;;4215296;28;20530;-33
2021/12/22 02:54:20;;;;;;;0.57;0.43;;;;;;;;;;4214713;28;20059;-34
2021/12/22 02:56:04;;;;;;;0.60;0.35;;;;;;;;;;4197971;28;20441;-33
2021/12/22 02:58:06;;;;;;;0.65;0.40;;;;;;;;;;4215159;28;20109;-33
2021/12/22 03:02:36;;;;;;;0.38;0.35;;;;;;;;;;4214808;28;20100;-33
2021/12/22 03:04:53;;;;;;;0.47;0.40;;;;;;;;;;4215079;28;20052;-32
2021/12/22 03:07:00;;;;;;;0.30;0.30;;;;;;;;;;4214389;28;20063;-33
2021/12/22 03:09:14;;;;;;;0.38;0.30;;;;;;;;;;4214931;28;20093;-33
2021/12/22 03:11:15;;;;;;;0.35;0.32;;;;;;;;;;4214608;28;20059;-33
2021/12/22 03:13:16;;;;;;;0.70;0.50;;;;;;;;;;4215006;28;20052;-33
2021/12/22 03:15:17;;;;;;;0.52;0.35;;;;;;;;;;4215142;28;20512;-34
2021/12/22 03:17:18;;;;;;;0.50;0.40;;;;;;;;;;4214311;28;20061;-33
2021/12/22 03:19:24;;;;;;;0.95;0.40;;;;;;;;;;4214316;28;20442;-33
2021/12/22 03:21:25;;;;;;;0.40;0.30;;;;;;;;;;4214988;28;20097;-33
2021/12/22 03:23:26;;;;;;;0.70;0.50;;;;;;;;;;4196188;28;20302;-33
2021/12/22 03:25:27;;;;;;;0.30;0.30;;;;;;;;;;4214311;28;20485;-33
2021/12/22 03:27:28;;;;;;;0.55;0.40;;;;;;;;;;4214443;28;20089;-33
2021/12/22 03:29:30;;;;;;;0.50;0.30;;;;;;;;;;4214396;28;20137;-35
2021/12/22 03:31:31;;;;;;;0.40;0.40;;;;;;;;;;4214571;28;20056;-33
2021/12/22 03:33:32;;;;;;;0.68;0.40;;;;;;;;;;4196814;28;20048;-33
2021/12/22 03:35:35;;;;;;;0.90;0.50;;;;;;;;;;4196321;28;20097;-34
2021/12/22 03:37:36;;;;;;;0.45;0.32;;;;;;;;;;4195831;28;20432;-34
2021/12/22 03:39:37;;;;;;;0.38;0.30;;;;;;;;;;4214684;28;20047;-34
2021/12/22 03:41:39;;;;;;;0.80;0.60;;;;;;;;;;4214583;28;20062;-33
2021/12/22 03:43:40;;;;;;;0.52;0.40;;;;;;;;;;4213969;28;20044;-33
2021/12/22 03:45:41;;;;;;;1.67;0.45;;;;;;;;;;4213415;28;20048;-34
2021/12/22 03:47:42;;;;;;;0.68;0.30;;;;;;;;;;4213816;28;20807;-34
2021/12/22 03:49:43;;;;;;;0.65;0.40;;;;;;;;;;4213859;28;20453;-33
2021/12/22 03:51:44;;;;;;;0.40;0.40;;;;;;;;;;4214088;28;20043;-33
2021/12/22 03:53:45;;;;;;;0.32;0.30;;;;;;;;;;4213689;28;20052;-33
2021/12/22 03:55:46;;;;;;;0.30;0.20;;;;;;;;;;4214308;28;20425;-33
2021/12/22 03:57:48;;;;;;;0.50;0.47;;;;;;;;;;4214331;28;20114;-33
2021/12/22 03:59:49;;;;;;;0.40;0.40;;;;;;;;;;4214220;28;20384;-34
2021/12/22 04:01:51;;;;;;;0.40;0.40;;;;;;;;;;4214180;28;20171;-34
2021/12/22 04:03:53;;;;;;;0.68;0.45;;;;;;;;;;4214446;28;20063;-34
2021/12/22 04:05:54;;;;;;;0.70;0.52;;;;;;;;;;4214058;28;20083;-33
2021/12/22 04:07:56;;;;;;;0.85;0.40;;;;;;;;;;4213460;28;20052;-33
2021/12/22 04:09:57;;;;;;;0.38;0.38;;;;;;;;;;4214069;28;20094;-35
2021/12/22 04:11:58;;;;;;;0.40;0.30;;;;;;;;;;4213364;28;20124;-33
2021/12/22 04:14:00;;;;;;;0.52;0.52;;;;;;;;;;4213781;28;20047;-33
2021/12/22 04:16:01;;;;;;;0.43;0.40;;;;;;;;;;4195893;28;20100;-33
2021/12/22 04:18:02;;;;;;;0.55;0.30;;;;;;;;;;4213908;28;20094;-33
2021/12/22 04:20:03;;;;;;;0.57;0.40;;;;;;;;;;4213910;28;20056;-33
2021/12/22 04:22:04;;;;;;;0.47;0.43;;;;;;;;;;4213428;28;20056;-33
2021/12/22 04:24:07;;;;;;;0.52;0.40;;;;;;;;;;4212919;28;20078;-33
2021/12/22 04:26:08;;;;;;;0.25;0.20;;;;;;;;;;4195196;28;20113;-34
2021/12/22 04:28:10;;;;;;;0.52;0.50;;;;;;;;;;4213877;28;20048;-33
2021/12/22 04:30:11;;;;;;;0.52;0.32;;;;;;;;;;4213489;28;20048;-33
2021/12/22 04:32:12;;;;;;;0.40;0.40;;;;;;;;;;4213974;28;20052;-33
2021/12/22 04:34:13;;;;;;;0.40;0.30;;;;;;;;;;4213905;28;20139;-35
2021/12/22 04:36:14;;;;;;;0.30;0.28;;;;;;;;;;4213573;28;20044;-34
2021/12/22 04:38:16;;;;;;;0.43;0.22;;;;;;;;;;4213136;28;20060;-34
2021/12/22 04:40:16;;;;;;;0.30;0.30;;;;;;;;;;4214094;28;20071;-34
2021/12/22 04:42:19;;;;;;;0.30;0.30;;;;;;;;;;4213855;28;20095;-33
2021/12/22 04:44:20;;;;;;;0.55;0.45;;;;;;;;;;4213822;28;20055;-33
2021/12/22 04:46:21;;;;;;;0.77;0.35;;;;;;;;;;4213762;28;20424;-33
2021/12/22 04:48:22;;;;;;;0.57;0.40;;;;;;;;;;4213447;28;20052;-35
2021/12/22 04:50:23;;;;;;;0.50;0.40;;;;;;;;;;4195249;28;20055;-33
2021/12/22 04:52:27;;;;;;;0.82;0.40;;;;;;;;;;4213234;28;20048;-34
2021/12/22 04:56:29;;;;;;;0.40;0.40;;;;;;;;;;4213416;28;20055;-33
2021/12/22 04:58:30;;;;;;;0.47;0.40;;;;;;;;;;4213408;28;20120;-33
2021/12/22 05:00:32;;;;;;;1.10;0.43;;;;;;;;;;4213661;28;20069;-33
2021/12/22 05:02:33;;;;;;;0.60;0.40;;;;;;;;;;4213165;28;20048;-33
2021/12/22 05:04:34;;;;;;;0.70;0.50;;;;;;;;;;4195352;28;20194;-33
2021/12/22 05:06:35;;;;;;;0.60;0.43;;;;;;;;;;4213502;28;20136;-34
2021/12/22 05:08:36;;;;;;;0.40;0.32;;;;;;;;;;4213537;28;20486;-33
2021/12/22 05:10:37;;;;;;;0.55;0.40;;;;;;;;;;4194692;28;20091;-33
2021/12/22 05:12:39;;;;;;;0.50;0.40;;;;;;;;;;4194289;28;20102;-33
2021/12/22 05:14:42;;;;;;;0.38;0.35;;;;;;;;;;4212761;28;20055;-34
2021/12/22 05:16:51;;;;;;;0.40;0.40;;;;;;;;;;4212858;28;20044;-33
2021/12/22 05:20:53;;;;;;;0.55;0.45;;;;;;;;;;4212932;28;20082;-33
2021/12/22 05:22:54;;;;;;;0.52;0.30;;;;;;;;;;4194285;28;20106;-33
2021/12/22 05:24:57;;;;;;;0.70;0.70;;;;;;;;;;4194437;28;20060;-34
2021/12/22 05:26:58;;;;;;;0.40;0.30;;;;;;;;;;4211661;28;20055;-33
2021/12/22 05:28:59;;;;;;;0.57;0.57;;;;;;;;;;4212817;28;20044;-33
2021/12/22 05:31:00;;;;;;;0.68;0.50;;;;;;;;;;4212352;28;20091;-34
2021/12/22 05:33:02;;;;;;;0.43;0.43;;;;;;;;;;4211250;28;20052;-34
2021/12/22 05:35:04;;;;;;;0.40;0.40;;;;;;;;;;4213394;28;20136;-33
2021/12/22 05:37:05;;;;;;;0.68;0.52;;;;;;;;;;4212603;28;20403;-33
2021/12/22 05:39:06;;;;;;;0.47;0.38;;;;;;;;;;4212650;28;20068;-34
2021/12/22 05:41:07;;;;;;;0.57;0.32;;;;;;;;;;4213132;28;20126;-34
2021/12/22 05:43:08;;;;;;;0.60;0.55;;;;;;;;;;4213210;28;20114;-34
2021/12/22 05:45:09;;;;;;;1.23;0.85;;;;;;;;;;4213241;28;20082;-34
2021/12/22 05:47:10;;;;;;;1.02;0.70;;;;;;;;;;4213006;28;20476;-34
2021/12/22 05:49:11;;;;;;;1.42;0.82;;;;;;;;;;4213115;28;20093;-35
2021/12/22 05:51:12;;;;;;;0.73;0.68;;;;;;;;;;4213188;28;20101;-33
2021/12/22 05:53:13;;;;;;;0.88;0.60;;;;;;;;;;4212770;28;20087;-34
2021/12/22 05:55:14;;;;;;;1.10;0.60;;;;;;;;;;4213163;28;20080;-34
2021/12/22 05:57:15;;;;;;;1.55;0.60;;;;;;;;;;4213014;28;20510;-33
2021/12/22 05:59:16;;;;;;;1.30;0.80;;;;;;;;;;4213095;28;20101;-34
2021/12/22 06:01:17;;;;;;;0.60;0.50;;;;;;;;;;4212987;28;20125;-33
2021/12/22 06:03:18;;;;;;;1.63;0.80;;;;;;;;;;4215534;28;20047;-34
2021/12/22 06:05:19;;;;;;;1.00;0.70;;;;;;;;;;4216246;28;20518;-34
2021/12/22 06:07:20;;;;;;;1.58;0.68;;;;;;;;;;4215682;28;20086;-35
2021/12/22 06:09:21;;;;;;;0.80;0.60;;;;;;;;;;4214887;28;20052;-34
2021/12/22 06:11:22;;;;;;;1.02;0.93;;;;;;;;;;4215280;28;20438;-34
2021/12/22 06:13:23;;;;;;;0.93;0.82;;;;;;;;;;4215766;28;20104;-34
2021/12/22 06:15:24;;;;;;;0.80;0.60;;;;;;;;;;4215245;28;20047;-34
2021/12/22 06:17:24;;;;;;;1.77;1.00;;;;;;;;;;4215235;28;20106;-34
2021/12/22 06:19:25;;;;;;;0.90;0.75;;;;;;;;;;4213981;28;20086;-33
2021/12/22 06:21:26;;;;;;;1.20;1.00;;;;;;;;;;4215719;28;20055;-34
2021/12/22 06:23:27;;;;;;;0.85;0.75;;;;;;;;;;4213799;28;20510;-34
2021/12/22 06:25:28;;;;;;;1.08;0.80;;;;;;;;;;4215355;28;20095;-34
2021/12/22 06:27:29;;;;;;;2.00;0.93;;;;;;;;;;4213627;28;20048;-33
2021/12/22 06:29:30;;;;;;;2.10;0.90;;;;;;;;;;4214932;28;20145;-34
2021/12/22 06:31:31;;;;;;;1.48;0.77;;;;;;;;;;4215344;28;20048;-34
2021/12/22 06:33:33;;;;;;;1.20;0.95;;;;;;;;;;4213883;28;20048;-34
2021/12/22 06:35:34;;;;;;;1.10;0.88;;;;;;;;;;4215150;28;20097;-33
2021/12/22 06:37:35;;;;;;;1.35;0.98;;;;;;;;;;4214988;28;20081;-33
2021/12/22 06:39:36;;;;;;;3.17;1.00;;;;;;;;;;4213889;28;20055;-33
2021/12/22 06:41:37;;;;;;;1.27;1.00;;;;;;;;;;4215581;28;20101;-34
2021/12/22 06:43:38;;;;;;;1.40;0.88;;;;;;;;;;4215400;28;20472;-33
2021/12/22 06:45:39;;;;;;;2.25;1.00;;;;;;;;;;4215550;28;20095;-33
2021/12/22 06:47:41;;;;;;;1.55;1.00;;;;;;;;;;4215278;28;20048;-33
2021/12/22 06:49:42;;;;;;;2.60;0.88;;;;;;;;;;4215539;28;20519;-34
2021/12/22 06:51:42;;;;;;;1.13;0.85;;;;;;;;;;4215018;28;20056;-34
2021/12/22 06:53:43;;;;;;;1.27;0.73;;;;;;;;;;4215256;28;20101;-35
2021/12/22 06:55:44;;;;;;;1.00;0.80;;;;;;;;;;4215324;28;20452;-33
2021/12/22 06:57:46;;;;;;;2.35;1.10;;;;;;;;;;4215120;28;20125;-34
2021/12/22 06:59:47;;;;;;;1.08;0.85;;;;;;;;;;4213740;28;20090;-33
2021/12/22 07:01:50;;;;;;;3.25;1.00;;;;;;;;;;4213744;28;20426;-34
2021/12/22 07:03:51;;;;;;;2.05;0.93;;;;;;;;;;4214920;28;20460;-34
2021/12/22 07:05:52;;;;;;;2.97;0.82;;;;;;;;;;4214982;28;20091;-34
2021/12/22 07:07:53;;;;;;;1.23;0.88;;;;;;;;;;4214371;28;20056;-34
2021/12/22 07:09:53;;;;;;;1.02;0.80;;;;;;;;;;4214977;28;20105;-34
2021/12/22 07:11:54;;;;;;;1.15;0.90;;;;;;;;;;4214882;28;20056;-34
2021/12/22 07:13:55;;;;;;;0.85;0.75;;;;;;;;;;4214135;28;20056;-34
2021/12/22 07:15:57;;;;;;;1.65;0.98;;;;;;;;;;4214680;28;20093;-34
2021/12/22 07:17:58;;;;;;;3.33;1.17;;;;;;;;;;4214444;28;20105;-33
2021/12/22 07:19:59;;;;;;;1.80;0.80;;;;;;;;;;4213776;28;20105;-34
2021/12/22 07:22:00;;;;;;;1.70;1.40;;;;;;;;;;4213887;28;20351;-34
2021/12/22 07:24:00;;;;;;;1.42;0.80;;;;;;;;;;4214274;28;20564;-33
2021/12/22 07:26:02;;;;;;;0.82;0.73;;;;;;;;;;4214606;28;20399;-34
2021/12/22 07:28:03;;;;;;;1.33;0.82;;;;;;;;;;4207121;28;20050;-33
2021/12/22 07:30:04;;;;;;;1.13;0.95;;;;;;;;;;4212196;28;20484;-34
2021/12/22 07:32:05;;;;;;;1.33;1.05;;;;;;;;;;4212080;28;20120;-34
2021/12/22 07:34:12;;;;;;;1.27;0.88;;;;;;;;;;4211037;28;20185;-34
2021/12/22 07:36:13;;;;;;;1.35;0.98;;;;;;;;;;4200358;28;20100;-34
2021/12/22 07:38:32;;;;;;;2.10;1.02;;;;;;;;;;4207107;28;20057;-34
2021/12/22 07:40:33;;;;;;;1.35;0.90;;;;;;;;;;4193695;28;20053;-33
2021/12/22 07:42:35;;;;;;;1.38;0.80;;;;;;;;;;4213127;28;20515;-34
2021/12/22 07:44:35;;;;;;;1.55;1.08;;;;;;;;;;4217523;28;20058;-34
2021/12/22 07:46:37;;;;;;;1.40;0.85;;;;;;;;;;4193087;28;20052;-34
2021/12/22 07:48:38;;;;;;;2.05;1.15;;;;;;;;;;4209474;28;20452;-34
2021/12/22 07:50:39;;;;;;;1.40;0.90;;;;;;;;;;4212834;28;20048;-34
2021/12/22 07:52:40;;;;;;;2.30;0.85;;;;;;;;;;4212619;28;20090;-34
2021/12/22 07:54:41;;;;;;;2.05;1.00;;;;;;;;;;4189880;28;20072;-35
2021/12/22 07:56:42;;;;;;;1.25;0.93;;;;;;;;;;4214199;28;20047;-34
2021/12/22 07:58:43;;;;;;;1.52;0.90;;;;;;;;;;4211274;28;20106;-34
2021/12/22 08:00:44;;;;;;;2.35;0.95;;;;;;;;;;4187679;28;20051;-34
2021/12/22 08:02:45;;;;;;;2.72;1.05;;;;;;;;;;4211537;28;20051;-34
2021/12/22 08:04:46;;;;;;;3.08;1.02;;;;;;;;;;4212994;28;20052;-34
2021/12/22 08:06:47;;;;;;;1.13;0.80;;;;;;;;;;4211474;28;20086;-34
2021/12/22 08:08:48;;;;;;;2.30;1.10;;;;;;;;;;4190539;28;20049;-35
2021/12/22 08:10:49;;;;;;;1.58;1.13;;;;;;;;;;4212585;28;20051;-34
2021/12/22 08:12:50;;;;;;;0.90;0.70;;;;;;;;;;4206100;28;20388;-34
2021/12/22 08:14:51;;;;;;;2.53;0.90;;;;;;;;;;4208254;28;20039;-35
2021/12/22 08:16:52;;;;;;;3.17;0.85;;;;;;;;;;4212249;28;20487;-34
2021/12/22 08:18:53;;;;;;;1.52;1.02;;;;;;;;;;4212580;28;20063;-34
2021/12/22 08:20:54;;;;;;;1.48;0.90;;;;;;;;;;4188271;28;20414;-34
2021/12/22 08:22:55;;;;;;;1.10;0.90;;;;;;;;;;4206124;28;20097;-34
2021/12/22 08:24:56;;;;;;;1.00;0.82;;;;;;;;;;4211358;28;20052;-33
2021/12/22 08:26:57;;;;;;;2.00;1.10;;;;;;;;;;4178235;28;20119;-34
2021/12/22 08:28:58;;;;;;;1.38;1.02;;;;;;;;;;4193571;28;20476;-34
2021/12/22 08:30:59;;;;;;;1.85;0.90;;;;;;;;;;4211909;28;20094;-35
2021/12/22 08:33:04;;;;;;;1.20;0.98;;;;;;;;;;4212628;28;20044;-34
2021/12/22 08:35:08;;;;;;;2.33;1.10;;;;;;;;;;4212335;28;20063;-35
2021/12/22 08:39:30;;;;;;;1.17;0.80;;;;;;;;;;4210084;28;20108;-34
2021/12/22 08:41:32;;;;;;;4.18;1.10;;;;;;;;;;4201431;28;20445;-33
2021/12/22 08:43:33;;;;;;;2.25;1.25;;;;;;;;;;4212034;28;20048;-34
2021/12/22 08:45:34;;;;;;;3.05;1.00;;;;;;;;;;4194090;28;20079;-34
2021/12/22 08:47:35;;;;;;;2.00;1.10;;;;;;;;;;4212627;28;20052;-34
2021/12/22 08:49:36;;;;;;;2.75;1.10;;;;;;;;;;4202870;28;20101;-35
2021/12/22 08:51:37;;;;;;;3.22;1.10;;;;;;;;;;4206474;28;20047;-34
2021/12/22 08:53:38;;;;;;;2.38;0.90;;;;;;;;;;4208756;28;20040;-34
2021/12/22 08:55:39;;;;;;;1.90;1.00;;;;;;;;;;4190391;28;20420;-33
2021/12/22 08:57:41;;;;;;;1.30;1.00;;;;;;;;;;4186229;28;20048;-33
2021/12/22 08:59:42;;;;;;;1.63;1.25;;;;;;;;;;4209619;28;20106;-34
2021/12/22 09:01:43;;;;;;;1.80;1.10;;;;;;;;;;4207988;28;20550;-35
2021/12/22 09:03:44;;;;;;;1.35;0.90;;;;;;;;;;4211402;28;20109;-37
2021/12/22 09:05:45;;;;;;;1.30;1.00;;;;;;;;;;4197522;28;20064;-35
2021/12/22 09:07:46;;;;;;;2.45;1.13;;;;;;;;;;4209763;28;20241;-33
2021/12/22 09:09:47;;;;;;;2.13;1.27;;;;;;;;;;4212148;28;20052;-35
2021/12/22 09:11:48;;;;;;;1.88;1.08;;;;;;;;;;4211747;28;20093;-33
2021/12/22 09:13:49;;;;;;;1.73;0.98;;;;;;;;;;4212185;28;20044;-33
2021/12/22 09:15:51;;;;;;;1.55;1.10;;;;;;;;;;4211776;28;20783;-34
2021/12/22 09:17:52;;;;;;;1.45;1.00;;;;;;;;;;4210967;28;20044;-33
2021/12/22 09:19:53;;;;;;;1.38;1.00;;;;;;;;;;4210824;28;20132;-33
2021/12/22 09:21:54;;;;;;;2.85;1.13;;;;;;;;;;4177667;28;20052;-36
2021/12/22 09:23:55;;;;;;;1.70;1.20;;;;;;;;;;4208633;28;20094;-33
2021/12/22 09:25:56;;;;;;;1.50;0.90;;;;;;;;;;4211908;28;20085;-33
2021/12/22 09:27:58;;;;;;;1.00;0.90;;;;;;;;;;4192827;28;20109;-33
2021/12/22 09:29:59;;;;;;;1.17;1.05;;;;;;;;;;4206113;28;20040;-35
2021/12/22 09:32:00;;;;;;;1.50;1.08;;;;;;;;;;4207818;28;20083;-34
2021/12/22 09:34:01;;;;;;;1.77;1.20;;;;;;;;;;4212615;28;20105;-34
2021/12/22 09:36:03;;;;;;;2.15;1.27;;;;;;;;;;4212282;28;20048;-33
2021/12/22 09:38:05;;;;;;;1.17;0.95;;;;;;;;;;4204437;28;20052;-34
2021/12/22 09:40:06;;;;;;;2.40;1.27;;;;;;;;;;4203541;28;20067;-34
2021/12/22 09:42:08;;;;;;;2.33;0.93;;;;;;;;;;4197511;28;20067;-34
2021/12/22 09:44:09;;;;;;;4.78;1.48;;;;;;;;;;4215906;28;20097;-34
2021/12/22 09:46:13;;;;;;;1.85;1.20;;;;;;;;;;4195003;28;20467;-33
2021/12/22 09:50:35;;;;;;;3.45;1.23;;;;;;;;;;4211883;28;20553;-33
2021/12/22 09:52:36;;;;;;;1.58;1.42;;;;;;;;;;4189442;28;20130;-33
2021/12/22 09:54:39;;;;;;;1.88;1.30;;;;;;;;;;4213843;28;20032;-34
2021/12/22 09:56:41;;;;;;;1.88;1.20;;;;;;;;;;4212749;28;20043;-33
2021/12/22 09:58:43;;;;;;;2.20;1.17;;;;;;;;;;4211583;28;20051;-34
2021/12/22 10:00:45;;;;;;;1.80;1.38;;;;;;;;;;4210233;28;20048;-34
2021/12/22 10:02:46;;;;;;;2.13;1.23;;;;;;;;;;4212532;28;20109;-33
2021/12/22 10:04:47;;;;;;;1.77;1.27;;;;;;;;;;4209638;28;20044;-33
2021/12/22 10:06:48;;;;;;;4.22;1.38;;;;;;;;;;4212761;28;20532;-34
2021/12/22 10:08:54;;;;;;;2.45;1.63;;;;;;;;;;4214897;28;20150;-33
2021/12/22 10:11:08;;;;;;;2.90;1.15;;;;;;;;;;4213481;28;20060;-34
2021/12/22 10:13:14;;;;;;;3.05;1.25;;;;;;;;;;4211343;28;20093;-38
2021/12/22 10:15:16;;;;;;;2.25;1.20;;;;;;;;;;4214926;28;20105;-33
2021/12/22 10:17:29;;;;;;;4.35;1.48;;;;;;;;;;4214679;28;20056;-34
2021/12/22 10:19:30;;;;;;;2.65;1.13;;;;;;;;;;4190839;28;20056;-33
2021/12/22 10:21:33;;;;;;;3.53;1.40;;;;;;;;;;4214789;28;20070;-34
2021/12/22 10:23:34;;;;;;;3.08;1.30;;;;;;;;;;4214013;28;20117;-33
2021/12/22 10:25:35;;;;;;;2.53;1.40;;;;;;;;;;4214944;28;20048;-34
2021/12/22 10:27:37;;;;;;;3.78;1.20;;;;;;;;;;4214949;28;20143;-33
2021/12/22 10:29:38;;;;;;;2.45;1.17;;;;;;;;;;4214790;28;20090;-34
2021/12/22 10:31:40;;;;;;;2.75;1.25;;;;;;;;;;4214315;28;20048;-34
2021/12/22 10:33:42;;;;;;;2.15;1.30;;;;;;;;;;4214540;28;20052;-34
2021/12/22 10:35:45;;;;;;;2.05;1.10;;;;;;;;;;4214575;28;20093;-36
2021/12/22 10:37:47;;;;;;;1.40;1.20;;;;;;;;;;4212502;28;20056;-34
2021/12/22 10:39:48;;;;;;;4.07;1.30;;;;;;;;;;4214195;28;20552;-34
2021/12/22 10:41:49;;;;;;;3.17;1.20;;;;;;;;;;4214773;28;20480;-34
2021/12/22 10:43:50;;;;;;;2.83;1.20;;;;;;;;;;4214182;28;20048;-34
2021/12/22 10:45:52;;;;;;;1.83;1.10;;;;;;;;;;4195486;28;20165;-34
2021/12/22 10:50:14;;;;;;;3.10;1.27;;;;;;;;;;4213917;28;20055;-34
2021/12/22 10:52:23;;;;;;;1.50;1.23;;;;;;;;;;4201172;28;20480;-34
2021/12/22 10:54:34;;;;;;;2.40;1.10;;;;;;;;;;4212419;28;20479;-35
2021/12/22 10:56:37;;;;;;;2.47;1.30;;;;;;;;;;4217783;28;20627;-34
2021/12/22 10:58:38;;;;;;;2.03;1.13;;;;;;;;;;4211405;28;20060;-35
2021/12/22 11:00:39;;;;;;;1.65;1.00;;;;;;;;;;4209653;28;20048;-34
2021/12/22 11:02:44;;;;;;;2.55;1.23;;;;;;;;;;4213782;28;20070;-34
2021/12/22 11:04:45;;;;;;;3.65;1.30;;;;;;;;;;4195908;28;20048;-34
2021/12/22 11:06:49;;;;;;;1.98;1.00;;;;;;;;;;4210960;28;20059;-35
2021/12/22 11:08:58;;;;;;;2.03;1.17;;;;;;;;;;4208693;28;20109;-35
2021/12/22 11:11:10;;;;;;;2.38;1.38;;;;;;;;;;4196385;28;20078;-34
2021/12/22 11:13:16;;;;;;;1.75;1.00;;;;;;;;;;4212802;28;20087;-35
2021/12/22 11:15:25;;;;;;;2.20;1.45;;;;;;;;;;4211487;28;20044;-36
2021/12/22 11:17:26;;;;;;;1.50;1.10;;;;;;;;;;4212862;28;20040;-34
2021/12/22 11:19:32;;;;;;;1.73;1.10;;;;;;;;;;4206339;28;20048;-34
2021/12/22 11:21:35;;;;;;;2.50;1.25;;;;;;;;;;4212192;28;20051;-33
2021/12/22 11:23:36;;;;;;;2.13;1.33;;;;;;;;;;4192091;28;20236;-34
2021/12/22 11:25:39;;;;;;;1.73;1.02;;;;;;;;;;4210484;28;20063;-34
2021/12/22 11:27:40;;;;;;;4.22;1.25;;;;;;;;;;4212339;28;20380;-34
2021/12/22 11:29:44;;;;;;;1.88;1.20;;;;;;;;;;4211975;28;20055;-34
2021/12/22 11:31:48;;;;;;;1.77;1.10;;;;;;;;;;4212081;28;20642;-34
2021/12/22 11:33:49;;;;;;;1.10;0.80;;;;;;;;;;4207131;28;20141;-34
2021/12/22 11:35:51;;;;;;;2.88;1.50;;;;;;;;;;4210853;28;20189;-34
2021/12/22 11:37:53;;;;;;;1.92;1.23;;;;;;;;;;4212156;28;20117;-33
2021/12/22 11:39:55;;;;;;;2.15;1.42;;;;;;;;;;4195115;28;20048;-33
2021/12/22 11:41:58;;;;;;;1.70;1.23;;;;;;;;;;4212824;28;20052;-34
2021/12/22 11:44:01;;;;;;;1.88;1.42;;;;;;;;;;4211588;28;20048;-34
2021/12/22 11:46:02;;;;;;;1.98;1.30;;;;;;;;;;4211878;28;20063;-33
2021/12/22 11:48:03;;;;;;;1.25;1.00;;;;;;;;;;4212324;28;20044;-33
2021/12/22 11:50:06;;;;;;;1.10;0.85;;;;;;;;;;4211261;28;20048;-34
2021/12/22 11:52:29;;;;;;;3.40;1.23;;;;;;;;;;4211643;28;20047;-34
2021/12/22 11:54:30;;;;;;;1.35;1.10;;;;;;;;;;4195621;28;20064;-33
2021/12/22 11:56:50;;;;;;;2.20;1.17;;;;;;;;;;4213746;28;20479;-33
2021/12/22 11:58:51;;;;;;;3.58;1.10;;;;;;;;;;4212138;28;20098;-34
2021/12/22 12:00:55;;;;;;;1.70;1.20;;;;;;;;;;4213028;28;20182;-33
2021/12/22 12:03:18;;;;;;;3.45;1.30;;;;;;;;;;4210362;28;20043;-34
2021/12/22 12:05:21;;;;;;;2.08;1.27;;;;;;;;;;4208884;28;20048;-34
2021/12/22 12:07:41;;;;;;;3.00;1.05;;;;;;;;;;4212540;28;20368;-34
2021/12/22 12:09:46;;;;;;;2.53;1.42;;;;;;;;;;4213747;28;20106;-34
2021/12/22 12:11:52;;;;;;;1.15;1.05;;;;;;;;;;4195850;28;20108;-34
2021/12/22 12:14:02;;;;;;;2.25;1.35;;;;;;;;;;4212723;28;20090;-35
2021/12/22 12:21:40;;;;;;;1.52;1.17;;;;;;;;;;4211828;28;20066;-33
2021/12/22 12:23:43;;;;;;;2.33;1.00;;;;;;;;;;4182286;28;20044;-34
2021/12/22 12:25:44;;;;;;;2.10;1.40;;;;;;;;;;4194716;28;20429;-34
2021/12/22 12:27:45;;;;;;;2.15;1.13;;;;;;;;;;4195511;28;20127;-34
2021/12/22 12:29:53;;;;;;;6.15;1.20;;;;;;;;;;4191916;28;20388;-34
2021/12/22 12:31:54;;;;;;;1.85;1.50;;;;;;;;;;4197716;28;20044;-34
2021/12/22 12:34:15;;;;;;;1.95;1.15;;;;;;;;;;4193793;28;20113;-34
2021/12/22 12:36:16;;;;;;;2.35;1.20;;;;;;;;;;4196708;28;20098;-33
2021/12/22 12:38:19;;;;;;;2.97;1.00;;;;;;;;;;4195583;28;20060;-34
2021/12/22 12:40:20;;;;;;;1.50;0.90;;;;;;;;;;4196535;28;20056;-34